Latest Weather Observations for Luncheon Hill

IDT60801

Issued at 8:03 pm EDT Monday 30 March 2015 (issued every 30 minutes, with the page automatically refreshed every 10 minutes)

About weather observations | Map of weather stations | Latest weather observations for TAS | Other Formats
Station Details ID: 091259 Name: LUNCHEON HILL (FORESTRY) Lat: -41.15 Lon: 145.15 Height: 344.0 m
Data from the previous 72 hours. | See also: Recent months at Luncheon Hill
Date/Time
EDT
Temp
°C
App
Temp
°C
Dew
Point
Rel
Hum
%
Delta-T
°C
Wind Press
QNH
hPa
Press
MSL
hPa
Rain
since 9 am
mm
Dir
 
Spd
km/h
Gust
km/h
Spd
kts
Gust
kts
30/08:00pm 11.9 8.7 9.8 87 1.1 SW 17 26 9 14 - - 0.0
30/07:30pm 12.1 8.8 9.7 85 1.2 SW 17 24 9 13 - - 0.0
30/07:00pm 12.3 9.1 9.9 85 1.2 WSW 17 32 9 17 - - 0.0
30/06:30pm 12.5 8.9 9.9 84 1.4 WSW 19 32 10 17 - - 0.0
30/06:00pm 12.9 9.1 9.7 81 1.7 WSW 20 32 11 17 - - 0.0
30/05:30pm 13.2 10.1 10.2 82 1.6 WSW 17 28 9 15 - - 0.0
30/05:00pm 13.4 9.7 9.5 77 2.0 WSW 19 33 10 18 - - 0.0
30/04:30pm 13.6 10.1 10.2 80 1.8 WSW 19 30 10 16 - - 0.0
30/04:00pm 13.9 10.9 10.7 81 1.7 W 17 30 9 16 - - 0.0
30/03:30pm 14.1 11.2 11.1 82 1.6 W 17 28 9 15 - - 0.0
30/03:00pm 14.6 10.8 11.2 80 1.8 W 22 39 12 21 - - 0.0
30/02:30pm 14.6 12.9 12.3 86 1.3 W 13 26 7 14 - - 0.0
30/02:00pm 13.8 11.4 11.3 85 1.4 WSW 15 26 8 14 - - 0.0
30/01:30pm 13.5 10.6 11.0 85 1.3 W 17 28 9 15 - - 0.0
30/01:00pm 14.0 11.1 11.0 82 1.6 WSW 17 35 9 19 - - 0.0
30/12:30pm 14.8 12.2 12.1 84 1.5 WSW 17 33 9 18 - - 0.0
30/12:00pm 13.2 10.2 12.1 93 0.6 W 19 35 10 19 - - 0.0
30/11:30am 12.9 9.9 12.0 94 0.5 W 19 30 10 16 - - 0.0
30/11:00am 13.0 10.3 12.8 99 0.1 W 19 30 10 16 - - 0.0
30/10:30am 12.8 10.4 12.6 99 0.1 W 17 30 9 16 - - 0.0
30/10:00am 13.0 10.6 12.8 99 0.1 W 17 30 9 16 - - 0.0
30/09:30am 13.0 10.6 12.8 99 0.1 W 17 30 9 16 - - 0.0
30/09:00am 13.2 10.3 13.0 99 0.1 WNW 20 30 11 16 - - 9.2
30/08:30am 13.1 10.8 12.9 99 0.1 WNW 17 28 9 15 - - 8.4
30/08:00am 13.1 10.4 12.9 99 0.1 WNW 19 28 10 15 - - 7.8
30/07:30am 13.0 10.3 12.8 99 0.1 WNW 19 28 10 15 - - 7.6
30/07:00am 13.0 10.3 12.8 99 0.1 WNW 19 28 10 15 - - 7.6
30/06:30am 12.8 10.4 12.6 99 0.1 WNW 17 26 9 14 - - 7.6
30/06:00am 12.7 11.0 12.5 99 0.1 W 13 22 7 12 - - 7.6
30/05:30am 12.5 10.8 12.3 99 0.1 WNW 13 20 7 11 - - 7.6
30/05:00am 12.4 11.0 12.2 99 0.1 WSW 11 17 6 9 - - 7.4
30/04:30am 12.5 10.8 12.3 99 0.1 W 13 20 7 11 - - 7.4
30/04:00am 12.5 10.8 12.3 99 0.1 WSW 13 22 7 12 - - 7.4
30/03:30am 12.6 10.9 12.4 99 0.1 WSW 13 24 7 13 - - 7.4
30/03:00am 12.6 10.9 12.4 99 0.1 WSW 13 22 7 12 - - 7.4
30/02:30am 12.7 10.6 12.5 99 0.1 W 15 22 8 12 - - 7.4
30/02:00am 12.7 10.3 12.5 99 0.1 W 17 26 9 14 - - 7.4
30/01:30am 12.8 10.0 12.6 99 0.1 WNW 19 28 10 15 - - 7.4
30/01:00am 12.9 9.2 12.7 99 0.1 WNW 24 41 13 22 - - 6.8
30/12:30am 13.0 9.7 12.8 99 0.1 WNW 22 33 12 18 - - 6.8
30/12:00am 13.0 9.7 12.8 99 0.1 WNW 22 32 12 17 - - 5.8
 
Date/Time
EDT
Temp
°C
App
Temp
°C
Dew
Point
Rel
Hum
%
Delta-T
°C
Wind Press
QNH
hPa
Press
MSL
hPa
Rain
since 9 am
mm
Dir
 
Spd
km/h
Gust
km/h
Spd
kts
Gust
kts
29/11:30pm 13.0 10.6 12.8 99 0.1 WNW 17 28 9 15 - - 5.8
29/11:00pm 13.0 9.7 12.8 99 0.1 WNW 22 32 12 17 - - 5.4
29/10:30pm 12.9 8.0 12.7 99 0.1 WNW 30 39 16 21 - - 5.4
29/10:00pm 13.0 10.1 12.8 99 0.1 WNW 20 28 11 15 - - 5.4
29/09:30pm 12.9 10.5 12.7 99 0.1 W 17 30 9 16 - - 5.2
29/09:00pm 12.9 9.6 12.7 99 0.1 WNW 22 28 12 15 - - 5.2
29/08:30pm 12.8 10.4 12.6 99 0.1 WNW 17 24 9 13 - - 5.2
29/08:00pm 12.9 11.3 12.7 99 0.1 W 13 24 7 13 - - 4.4
29/07:30pm 12.8 10.4 12.6 99 0.1 W 17 26 9 14 - - 2.6
29/07:00pm 12.9 10.1 12.7 99 0.1 W 19 28 10 15 - - 1.4
29/06:30pm 12.9 9.9 12.7 99 0.1 WNW 20 32 11 17 - - 1.4
29/06:00pm 12.9 10.1 12.7 99 0.1 W 19 28 10 15 - - 1.4
29/05:30pm 12.9 9.2 12.7 99 0.1 WNW 24 39 13 21 - - 1.0
29/05:00pm 13.2 10.8 12.7 97 0.3 W 17 30 9 16 - - 0.2
29/04:30pm 13.6 10.9 13.0 96 0.3 W 19 33 10 18 - - 0.2
29/04:00pm 13.9 11.5 12.8 93 0.6 W 17 32 9 17 - - 0.0
29/03:30pm 13.3 9.5 12.5 95 0.4 WNW 24 37 13 20 - - 0.0
29/03:00pm 13.6 10.4 13.0 96 0.3 WNW 22 35 12 19 - - 0.0
29/02:30pm 13.8 10.4 12.4 91 0.8 WNW 22 39 12 21 - - 0.0
29/02:00pm 13.5 9.5 11.9 90 0.9 WNW 24 35 13 19 - - 0.0
29/01:30pm 13.9 10.0 12.1 89 1.0 WNW 24 33 13 18 - - 0.0
29/01:00pm 13.8 9.8 11.7 87 1.1 WNW 24 33 13 18 - - 0.0
29/12:30pm 14.2 10.8 12.4 89 1.0 WNW 22 39 12 21 - - 0.0
29/12:00pm 14.0 12.2 13.4 96 0.3 W 15 33 8 18 - - 0.0
29/11:30am 13.3 10.9 12.8 97 0.3 W 17 32 9 17 - - 0.0
29/11:00am 12.7 8.9 12.5 99 0.1 WNW 24 35 13 19 - - 0.0
29/10:30am 12.3 8.4 12.1 99 0.1 WNW 24 33 13 18 - - 0.0
29/10:00am 11.7 8.0 11.5 99 0.1 WNW 22 30 12 16 - - 0.0
29/09:30am 11.1 7.8 10.9 99 0.1 WNW 19 24 10 13 - - 0.0
29/09:00am 10.5 7.8 10.3 99 0.1 WNW 15 24 8 13 - - 2.6
29/08:30am 10.4 7.3 10.2 99 0.1 NW 17 20 9 11 - - 1.8
29/08:00am 10.3 7.5 10.1 99 0.1 NW 15 20 8 11 - - 1.6
29/07:30am 10.0 6.4 9.9 99 0.1 NW 19 22 10 12 - - 1.6
29/07:00am 10.0 6.7 9.7 98 0.2 WNW 17 22 9 12 - - 1.6
29/06:30am 9.9 6.7 9.8 99 0.1 WNW 17 20 9 11 - - 1.6
29/06:00am 9.9 6.3 9.8 99 0.1 W 19 26 10 14 - - 1.6
29/05:30am 9.7 5.8 9.6 99 0.1 WNW 20 28 11 15 - - 1.6
29/05:00am 9.7 6.4 9.6 99 0.1 WNW 17 22 9 12 - - 1.4
29/04:30am 9.5 6.5 9.4 99 0.1 NW 15 17 8 9 - - 1.4
29/04:00am 9.5 6.9 9.4 99 0.1 W 13 19 7 10 - - 1.4
29/03:30am 9.5 6.9 9.4 99 0.1 NW 13 19 7 10 - - 1.4
29/03:00am 9.4 6.4 9.3 99 0.1 WNW 15 24 8 13 - - 1.4
29/02:30am 9.4 6.8 9.3 99 0.1 NW 13 15 7 8 - - 1.2
29/02:00am 9.3 6.3 9.2 99 0.1 WNW 15 19 8 10 - - 1.2
29/01:30am 9.2 6.2 9.1 99 0.1 NW 15 17 8 9 - - 1.0
29/01:00am 9.2 5.4 9.1 99 0.1 NW 19 26 10 14 - - 1.0
29/12:30am 9.1 6.0 9.0 99 0.0 NW 15 20 8 11 - - 1.0
29/12:00am 9.4 6.7 8.9 97 0.2 NW 13 15 7 8 - - 0.8
 
Date/Time
EDT
Temp
°C
App
Temp
°C
Dew
Point
Rel
Hum
%
Delta-T
°C
Wind Press
QNH
hPa
Press
MSL
hPa
Rain
since 9 am
mm
Dir
 
Spd
km/h
Gust
km/h
Spd
kts
Gust
kts
28/11:30pm 9.4 6.7 8.9 97 0.2 NW 13 20 7 11 - - 0.8
28/11:00pm 9.3 6.6 8.8 97 0.2 WNW 13 19 7 10 - - 0.8
28/10:30pm 9.3 6.5 8.7 96 0.3 W 13 20 7 11 - - 0.8
28/10:00pm 9.2 6.5 8.9 98 0.1 W 13 22 7 12 - - 0.8
28/09:30pm 9.0 6.7 8.9 99 0.0 W 11 17 6 9 - - 0.8
28/09:00pm 9.1 7.2 9.0 99 0.0 WSW 9 19 5 10 - - 0.8
28/08:30pm 8.9 6.5 8.8 99 0.0 WSW 11 17 6 9 - - 0.8
28/08:00pm 9.2 6.5 9.1 99 0.1 W 13 24 7 13 - - 0.8
28/07:30pm 9.5 6.9 9.4 99 0.1 WSW 13 22 7 12 - - 0.8
28/07:00pm 10.2 8.3 9.1 93 0.6 W 9 13 5 7 - - 0.6
28/06:30pm 10.7 7.7 9.1 90 0.8 W 15 26 8 14 - - 0.6
28/06:00pm 12.0 9.0 9.4 84 1.3 WSW 15 24 8 13 - - 0.6
28/05:30pm 11.7 9.8 9.1 84 1.3 SW 9 13 5 7 - - 0.6
28/05:00pm 12.7 11.2 10.6 87 1.1 WSW 9 17 5 9 - - 0.6
28/04:30pm 11.8 8.9 9.5 86 1.2 SW 15 26 8 14 - - 0.6
28/04:00pm 12.4 10.2 9.2 81 1.6 W 11 20 6 11 - - 0.6
28/03:30pm 12.2 8.9 9.6 84 1.3 WSW 17 28 9 15 - - 0.6
28/03:00pm 12.9 10.4 9.7 81 1.7 WSW 13 24 7 13 - - 0.4
28/02:30pm 14.3 11.7 10.7 79 1.9 WSW 15 24 8 13 - - 0.4
28/02:00pm 12.9 10.0 9.5 80 1.8 W 15 22 8 12 - - 0.4
28/01:30pm 13.0 11.0 10.0 82 1.6 WSW 11 17 6 9 - - 0.4
28/01:00pm 11.8 8.8 9.2 84 1.3 SW 15 26 8 14 - - 0.4
28/12:30pm 12.4 11.0 11.0 91 0.7 WSW 9 13 5 7 - - 0.4
28/12:00pm 12.1 10.8 11.2 94 0.5 WSW 9 15 5 8 - - 0.4
28/11:30am 11.1 8.8 10.6 97 0.3 SW 13 17 7 9 - - 0.2
28/11:00am 10.2 7.8 9.9 98 0.2 WSW 13 20 7 11 - - 0.2
28/10:30am 11.3 9.6 11.1 99 0.1 SSW 11 17 6 9 - - 0.2
28/10:00am 9.2 6.9 9.1 99 0.1 WSW 11 20 6 11 - - 0.2
28/09:30am 9.4 7.2 9.3 99 0.1 SSW 11 19 6 10 - - 0.0
28/09:00am 8.8 6.8 8.7 99 0.0 SW 9 15 5 8 - - 4.2
28/08:30am 8.5 6.0 8.4 99 0.0 SSW 11 15 6 8 - - 4.2
28/08:00am 8.1 5.2 8.0 99 0.0 SSW 13 15 7 8 - - 4.2
28/07:30am 7.8 4.4 7.7 99 0.0 SSW 15 19 8 10 - - 4.2
28/07:00am 7.8 4.4 7.7 99 0.0 SSW 15 20 8 11 - - 4.2
28/06:30am 7.7 3.9 7.6 99 0.0 SSW 17 20 9 11 - - 4.2
28/06:00am 7.6 3.8 7.5 99 0.0 SSW 17 20 9 11 - - 4.2
28/05:30am 7.5 3.3 7.4 99 0.0 SSW 19 22 10 12 - - 4.2
28/05:00am 7.7 3.5 7.6 99 0.0 SSW 19 22 10 12 - - 4.2
28/04:30am 7.6 4.2 7.5 99 0.0 SSW 15 20 8 11 - - 4.2
28/04:00am 8.0 4.7 7.9 99 0.0 SSW 15 20 8 11 - - 4.2
28/03:30am 8.3 5.0 8.2 99 0.0 SW 15 24 8 13 - - 4.2
28/03:00am 8.3 4.7 8.2 99 0.0 SSW 17 22 9 12 - - 4.2
28/02:30am 8.3 4.3 8.2 99 0.0 SSW 19 24 10 13 - - 4.2
28/02:00am 8.3 4.7 8.2 99 0.0 SSW 17 24 9 13 - - 4.0
28/01:30am 8.3 4.1 8.2 99 0.0 SSW 20 30 11 16 - - 4.0
28/01:00am 8.5 4.5 8.4 99 0.0 SSW 19 26 10 14 - - 4.0
28/12:30am 8.4 5.2 8.3 99 0.0 SSW 15 20 8 11 - - 4.0
28/12:00am 8.3 4.7 8.2 99 0.0 SSW 17 22 9 12 - - 4.0
 
Date/Time
EDT
Temp
°C
App
Temp
°C
Dew
Point
Rel
Hum
%
Delta-T
°C
Wind Press
QNH
hPa
Press
MSL
hPa
Rain
since 9 am
mm
Dir
 
Spd
km/h
Gust
km/h
Spd
kts
Gust
kts
27/11:30pm 8.5 4.9 8.4 99 0.0 SSW 17 22 9 12 - - 4.0
27/11:00pm 8.6 5.0 8.5 99 0.0 SSW 17 26 9 14 - - 4.0
27/10:30pm 8.5 4.3 8.4 99 0.0 SSW 20 28 11 15 - - 4.0
27/10:00pm 8.3 4.3 8.2 99 0.0 SSW 19 26 10 14 - - 4.0
27/09:30pm 8.7 4.2 8.6 99 0.0 SSW 22 32 12 17 - - 4.0
27/09:00pm 9.0 4.2 8.9 99 0.0 SSW 24 35 13 19 - - 4.0
27/08:30pm 9.1 5.3 9.0 99 0.0 SSW 19 28 10 15 - - 4.0

Other Formats:

Comma delimited format used in spreadsheet applications
http://www.bom.gov.au/fwo/IDT60801/IDT60801.95956.axf

JavaScript Object Notation format (JSON) in row-major order
http://www.bom.gov.au/fwo/IDT60801/IDT60801.95956.json